Time;durP1;ratioP1;P1;durP2;ratioP2;P2;SDS_P1;SDS_P2;PMS_P1;PMS_P2;Temp;Humidity;BMP_temperature;BMP_pressure;BME280_temperature;BME280_humidity;BME280_pressure;Samples;Min_cycle;Max_cycle;Signal;HPM_P1;HPM_P2
2023/05/08 00:01:42;;;;;;;15.02;6.50;;;;;;;13.79;40.03;100368.69;4858300;28;20668;-58
2023/05/08 00:04:13;;;;;;;16.27;7.28;;;;;;;13.90;39.08;100375.41;4877122;28;20081;-58
2023/05/08 00:06:44;;;;;;;10.63;6.70;;;;;;;13.93;38.56;100373.56;4856807;28;20050;-58
2023/05/08 00:09:14;;;;;;;15.82;7.78;;;;;;;13.96;38.17;100367.38;4857364;28;20042;-57
2023/05/08 00:11:45;;;;;;;13.25;7.32;;;;;;;13.89;37.25;100376.31;4857371;28;20096;-58
2023/05/08 00:14:17;;;;;;;20.67;7.70;;;;;;;13.93;38.38;100367.44;4869497;28;20714;-58
2023/05/08 00:16:47;;;;;;;34.67;7.22;;;;;;;14.07;38.78;100362.63;4856238;28;20883;-58
2023/05/08 00:19:18;;;;;;;48.60;9.55;;;;;;;14.23;37.54;100353.41;4864362;28;20052;-59
2023/05/08 00:21:48;;;;;;;21.48;7.85;;;;;;;14.19;37.50;100357.03;4872278;28;21787;-58
2023/05/08 00:24:19;;;;;;;16.02;8.18;;;;;;;14.16;37.11;100357.13;4855437;28;20054;-58
2023/05/08 00:26:49;;;;;;;13.80;7.32;;;;;;;14.26;37.46;100341.09;4853013;28;20186;-58
2023/05/08 00:29:21;;;;;;;12.10;7.75;;;;;;;14.24;35.97;100341.97;4852612;28;20432;-57
2023/05/08 00:31:53;;;;;;;16.38;7.50;;;;;;;14.24;37.22;100334.09;4853586;28;20053;-58
2023/05/08 00:34:23;;;;;;;13.68;7.20;;;;;;;14.47;37.65;100335.16;4858697;28;20602;-57
2023/05/08 00:36:54;;;;;;;16.10;7.32;;;;;;;14.62;37.50;100345.22;4867995;28;20058;-58
2023/05/08 00:39:24;;;;;;;17.48;7.55;;;;;;;14.86;36.78;100332.19;4865950;28;20160;-58
2023/05/08 00:41:55;;;;;;;16.48;7.57;;;;;;;14.97;36.79;100330.06;4869912;28;20072;-57
2023/05/08 00:44:27;;;;;;;15.23;7.25;;;;;;;14.96;36.96;100328.34;4887589;28;20040;-57
2023/05/08 00:46:58;;;;;;;15.60;7.75;;;;;;;15.01;36.57;100326.41;4884582;28;20054;-59
2023/05/08 00:49:29;;;;;;;14.82;7.75;;;;;;;15.09;36.13;100329.66;4884137;28;20058;-59
2023/05/08 00:51:59;;;;;;;27.77;8.50;;;;;;;15.13;35.80;100329.56;4874763;28;20109;-58
2023/05/08 00:54:31;;;;;;;13.38;6.90;;;;;;;15.11;35.04;100321.72;4855834;28;20064;-58
2023/05/08 00:57:02;;;;;;;15.60;7.53;;;;;;;15.20;35.37;100320.53;4863899;28;20057;-58
2023/05/08 00:59:36;;;;;;;18.85;8.05;;;;;;;15.37;35.83;100326.06;4871724;28;20518;-59
2023/05/08 01:02:08;;;;;;;17.25;9.13;;;;;;;15.47;35.19;100330.09;4856117;28;20058;-58
2023/05/08 01:04:39;;;;;;;10.57;7.85;;;;;;;15.44;34.92;100332.84;4853303;28;21053;-58
2023/05/08 01:07:11;;;;;;;12.30;8.30;;;;;;;15.33;34.66;100321.84;4863782;28;20698;-60
2023/05/08 01:09:41;;;;;;;13.10;7.57;;;;;;;15.36;35.49;100319.09;4826866;28;20054;-59
2023/05/08 01:12:18;;;;;;;17.67;9.13;;;;;;;15.38;34.94;100325.16;4839140;28;20870;-60
2023/05/08 01:15:01;;;;;;;16.73;8.27;;;;;;;15.37;34.99;100310.25;4862482;28;20290;-58
2023/05/08 01:17:40;;;;;;;17.57;7.87;;;;;;;15.63;36.43;100313.75;4859292;28;20377;-58
2023/05/08 01:20:32;;;;;;;12.15;6.78;;;;;;;15.78;34.88;100318.50;4861501;28;20359;-58
2023/05/08 01:23:46;;;;;;;10.40;7.13;;;;;;;15.96;35.41;100312.53;4860623;28;20384;-57
2023/05/08 01:26:57;;;;;;;13.73;7.40;;;;;;;16.12;34.77;100309.28;4849668;28;20289;-59
2023/05/08 01:29:55;;;;;;;13.80;8.00;;;;;;;16.11;34.33;100310.22;4851339;28;20299;-58
2023/05/08 01:32:30;;;;;;;25.33;7.67;;;;;;;15.99;34.01;100284.34;4861082;28;20622;-59
2023/05/08 01:35:11;;;;;;;14.87;6.40;;;;;;;15.98;34.27;100309.00;4859485;28;20315;-58
2023/05/08 01:37:51;;;;;;;12.93;6.50;;;;;;;15.98;33.83;100316.91;4864212;28;20284;-58
2023/05/08 01:40:33;;;;;;;33.70;7.57;;;;;;;16.14;34.00;100299.56;4861001;28;20287;-58
2023/05/08 01:43:19;;;;;;;13.87;6.30;;;;;;;16.17;34.22;100273.06;4855872;28;20397;-58
2023/05/08 01:45:52;;;;;;;20.07;6.60;;;;;;;16.03;33.66;100217.44;4862109;28;20486;-59
2023/05/08 01:48:29;;;;;;;12.53;6.70;;;;;;;16.44;32.94;100275.53;4865844;28;21009;-58
2023/05/08 01:51:06;;;;;;;18.23;6.00;;;;;;;16.37;33.64;100265.25;4865646;28;20290;-58
2023/05/08 01:53:41;;;;;;;12.10;5.80;;;;;;;16.55;32.84;100273.34;4881783;28;20307;-58
2023/05/08 01:56:15;;;;;;;7.80;5.50;;;;;;;16.62;32.82;100274.78;4867025;28;20292;-58
2023/05/08 01:58:48;;;;;;;8.60;5.00;;;;;;;16.60;33.36;100256.38;4853681;28;20280;-58
2023/05/08 02:01:23;;;;;;;8.80;5.67;;;;;;;16.72;32.97;100249.72;4861039;28;20291;-58
2023/05/08 02:03:56;;;;;;;12.33;6.23;;;;;;;16.81;32.56;100254.66;4877822;28;20630;-58
2023/05/08 02:06:28;;;;;;;17.33;6.27;;;;;;;16.87;32.50;100247.41;4876551;28;20383;-58
2023/05/08 02:09:00;;;;;;;7.93;5.30;;;;;;;16.68;31.96;100232.31;4863622;28;20412;-59
2023/05/08 02:11:32;;;;;;;8.40;5.17;;;;;;;16.57;32.75;100181.78;4869078;28;20280;-58
2023/05/08 02:14:05;;;;;;;9.47;5.57;;;;;;;17.11;32.67;100240.22;4874228;28;20290;-58
2023/05/08 02:16:39;;;;;;;10.07;5.67;;;;;;;17.25;31.93;100220.19;4851074;28;20286;-58
2023/05/08 02:19:14;;;;;;;11.93;5.77;;;;;;;17.37;32.04;100220.56;4866958;28;20430;-58
2023/05/08 02:21:46;;;;;;;10.87;5.80;;;;;;;17.29;30.68;100222.69;4882750;28;20959;-58
2023/05/08 02:24:18;;;;;;;9.63;5.80;;;;;;;17.22;31.42;100222.09;4864133;28;20300;-58
2023/05/08 02:26:50;;;;;;;8.23;5.13;;;;;;;17.27;31.59;100224.53;4856243;28;20278;-58
2023/05/08 02:29:23;;;;;;;9.77;5.67;;;;;;;17.25;31.34;100212.28;4877742;28;20326;-58
2023/05/08 02:31:55;;;;;;;9.30;5.13;;;;;;;17.34;31.54;100207.50;4877996;28;20282;-58
2023/05/08 02:34:29;;;;;;;12.37;5.63;;;;;;;17.37;31.69;100199.44;4869095;28;20275;-58
2023/05/08 02:37:01;;;;;;;7.87;5.07;;;;;;;17.43;31.49;100196.53;4862855;28;20938;-59
2023/05/08 02:39:35;;;;;;;9.57;5.00;;;;;;;17.56;31.45;100197.66;4877816;28;20696;-58
2023/05/08 02:42:06;;;;;;;13.07;5.60;;;;;;;17.47;31.16;100184.88;4848805;28;20316;-58
2023/05/08 02:44:36;;;;;;;11.47;4.90;;;;;;;17.69;31.75;100185.59;4865354;28;20280;-58
2023/05/08 02:47:16;;;;;;;14.07;4.63;;;;;;;17.80;30.61;100186.91;4876381;28;20288;-58
2023/05/08 02:49:53;;;;;;;16.07;6.40;;;;;;;17.80;30.73;100177.19;4870193;28;20301;-58
2023/05/08 02:52:28;;;;;;;;;;;;;;;17.62;30.46;100178.91;4843527;28;20338;-58
2023/05/08 02:55:02;;;;;;;9.50;4.90;;;;;;;17.65;31.55;100168.19;4860846;28;20365;-58
2023/05/08 02:57:40;;;;;;;9.40;5.10;;;;;;;17.91;30.17;100159.97;4862414;28;20683;-57
2023/05/08 03:00:17;;;;;;;15.87;5.00;;;;;;;17.85;30.38;100147.91;4848995;28;20280;-58
2023/05/08 03:02:53;;;;;;;6.70;5.30;;;;;;;17.99;30.39;100161.28;4861209;28;20458;-58
2023/05/08 03:05:35;;;;;;;13.63;5.60;;;;;;;18.08;29.76;100155.56;4865101;28;20287;-58
2023/05/08 03:08:09;;;;;;;24.17;5.90;;;;;;;17.97;30.14;100149.97;4855690;28;20285;-58
2023/05/08 03:10:42;;;;;;;10.10;5.10;;;;;;;17.96;30.20;100150.03;4857258;28;20298;-58
2023/05/08 03:13:15;;;;;;;18.63;5.57;;;;;;;18.15;31.09;100150.00;4864772;28;20276;-58
2023/05/08 03:15:50;;;;;;;10.30;5.60;;;;;;;18.24;30.54;100144.22;4865137;28;20291;-58
2023/05/08 03:18:23;;;;;;;12.53;5.10;;;;;;;18.35;29.58;100131.34;4855922;28;21002;-59
2023/05/08 03:20:58;;;;;;;13.07;5.73;;;;;;;18.64;30.65;100131.59;4863700;28;20288;-58
2023/05/08 03:23:31;;;;;;;11.83;5.43;;;;;;;18.72;29.42;100132.06;4857297;28;20337;-59
2023/05/08 03:26:03;;;;;;;15.33;5.53;;;;;;;18.65;29.45;100128.06;4865468;28;20677;-58
2023/05/08 03:28:36;;;;;;;19.10;5.43;;;;;;;18.53;29.84;100125.09;4865730;28;20311;-58
2023/05/08 03:31:08;;;;;;;39.90;13.87;;;;;;;18.17;29.80;100097.84;4864291;28;20287;-59
2023/05/08 03:33:40;;;;;;;15.53;5.87;;;;;;;18.02;29.59;100118.88;4846897;28;20770;-58
2023/05/08 03:36:12;;;;;;;16.00;5.50;;;;;;;18.04;30.07;100111.69;4865434;28;20280;-58
2023/05/08 03:38:44;;;;;;;17.27;5.70;;;;;;;18.09;29.39;100114.09;4864633;28;20284;-59
2023/05/08 03:41:15;;;;;;;11.27;5.00;;;;;;;18.08;29.36;100092.09;4864503;28;20287;-59
2023/05/08 03:43:46;;;;;;;11.60;4.90;;;;;;;18.20;29.82;100110.94;4864995;28;20383;-58
2023/05/08 03:46:18;;;;;;;9.93;4.40;;;;;;;18.45;30.69;100100.81;4865345;28;20363;-58
2023/05/08 03:48:49;;;;;;;8.13;4.37;;;;;;;18.66;29.16;100098.84;4860178;28;20286;-59
2023/05/08 03:51:23;;;;;;;16.43;4.57;;;;;;;18.64;29.11;100105.16;4864367;28;20288;-59
2023/05/08 03:53:53;;;;;;;16.30;4.83;;;;;;;18.73;28.84;100096.72;4849233;28;20299;-58
2023/05/08 03:56:24;;;;;;;19.07;5.07;;;;;;;18.41;28.72;100099.25;4845851;28;20289;-58
2023/05/08 03:59:01;;;;;;;10.90;4.43;;;;;;;18.10;28.88;100095.53;4846488;28;20999;-58
2023/05/08 04:01:39;;;;;;;10.70;4.47;;;;;;;17.92;29.31;100080.56;4837270;28;20296;-58
2023/05/08 04:04:17;;;;;;;16.63;3.75;;;;;;;17.94;29.78;100072.56;4837112;28;20284;-59
2023/05/08 04:07:00;;;;;;;31.83;6.20;;;;;;;17.77;30.24;100039.03;4844726;28;20066;-58
2023/05/08 04:09:39;;;;;;;71.90;7.67;;;;;;;17.74;30.77;100103.44;4835794;28;20281;-58
2023/05/08 04:12:19;;;;;;;16.80;4.97;;;;;;;17.41;31.16;100111.22;4836453;28;20297;-61
2023/05/08 04:14:53;;;;;;;10.73;4.70;;;;;;;16.92;31.66;100050.97;4834347;28;20759;-59
2023/05/08 04:17:40;;;;;;;9.80;4.30;;;;;;;17.04;31.93;100091.78;4846982;28;20300;-58
2023/05/08 04:20:16;;;;;;;12.57;3.73;;;;;;;16.83;32.19;100092.78;4836887;28;20296;-58
2023/05/08 04:22:53;;;;;;;10.07;3.80;;;;;;;16.79;31.62;100092.03;4847812;28;20293;-58
2023/05/08 04:25:24;;;;;;;33.30;4.77;;;;;;;16.81;31.63;100075.22;4835731;28;20284;-59
2023/05/08 04:27:56;;;;;;;11.93;3.80;;;;;;;17.00;31.91;100091.09;4847047;28;20288;-58
2023/05/08 04:30:27;;;;;;;28.53;4.50;;;;;;;17.42;32.31;100102.34;4846609;28;20766;-58
2023/05/08 04:32:58;;;;;;;11.17;3.53;;;;;;;17.46;30.20;100082.78;4845089;28;20269;-58
2023/05/08 04:35:29;;;;;;;16.83;4.50;;;;;;;17.10;31.02;100096.81;4850067;28;20346;-58
2023/05/08 04:38:02;;;;;;;44.97;4.97;;;;;;;16.62;31.22;100084.84;4846506;28;20289;-60
2023/05/08 04:40:33;;;;;;;15.30;3.50;;;;;;;16.49;31.87;100104.78;4846243;28;20284;-58
2023/05/08 04:43:03;;;;;;;17.03;3.87;;;;;;;16.12;31.75;100098.41;4847475;28;21382;-59
2023/05/08 04:45:34;;;;;;;18.43;5.00;;;;;;;15.70;32.45;100100.13;4844558;28;20400;-58
2023/05/08 04:48:05;;;;;;;7.97;4.30;;;;;;;14.93;33.07;100046.94;4846318;28;20320;-59
2023/05/08 04:50:36;;;;;;;21.13;5.13;;;;;;;14.93;34.30;100107.47;4844775;28;20327;-59
2023/05/08 04:53:08;;;;;;;28.30;5.73;;;;;;;14.64;34.67;100096.22;4843941;28;20285;-58
2023/05/08 04:55:38;;;;;;;18.40;4.23;;;;;;;14.43;34.29;100102.22;4840046;28;20275;-58
2023/05/08 04:58:10;;;;;;;13.30;4.63;;;;;;;14.21;34.89;100097.69;4848509;28;20756;-58
2023/05/08 05:00:41;;;;;;;30.07;5.23;;;;;;;14.20;35.43;100103.84;4846712;28;20292;-58
2023/05/08 05:03:12;;;;;;;36.30;5.17;;;;;;;14.19;35.75;100098.66;4846930;28;20276;-58
2023/05/08 05:05:43;;;;;;;12.07;4.20;;;;;;;14.19;35.27;100094.25;4845293;28;20312;-59
2023/05/08 05:08:15;;;;;;;10.30;4.40;;;;;;;14.04;35.79;100084.25;4845398;28;20343;-58
2023/05/08 05:10:46;;;;;;;19.40;4.75;;;;;;;13.98;35.41;100100.22;4846211;28;20304;-59
2023/05/08 05:13:16;;;;;;;14.40;5.03;;;;;;;13.74;35.00;100092.22;4846670;28;20049;-58
2023/05/08 05:15:47;;;;;;;9.38;4.22;;;;;;;13.73;35.90;100095.78;4846514;28;20268;-58
2023/05/08 05:18:18;;;;;;;11.38;4.95;;;;;;;13.83;35.24;100096.34;4844858;28;20176;-58
2023/05/08 05:20:49;;;;;;;21.70;5.43;;;;;;;13.97;35.38;100088.00;4848781;28;20054;-58
2023/05/08 05:23:21;;;;;;;12.07;4.72;;;;;;;13.82;34.64;100095.44;4845602;28;20045;-58
2023/05/08 05:25:51;;;;;;;14.68;4.80;;;;;;;13.73;35.47;100084.41;4846631;28;20567;-57
2023/05/08 05:28:22;;;;;;;9.55;4.75;;;;;;;13.59;35.03;100087.47;4849413;28;20077;-58
2023/05/08 05:30:52;;;;;;;33.75;6.35;;;;;;;13.36;35.18;100086.41;4851504;28;20100;-57
2023/05/08 05:33:23;;;;;;;11.93;5.05;;;;;;;13.23;34.59;100085.03;4849355;28;20082;-58
2023/05/08 05:35:54;;;;;;;27.17;5.40;;;;;;;12.89;34.92;100044.06;4849756;28;20480;-57
2023/05/08 05:38:26;;;;;;;15.95;5.20;;;;;;;12.98;35.14;100056.06;4850696;28;20049;-57
2023/05/08 05:40:56;;;;;;;878.63;64.90;;;;;;;13.21;35.68;100063.25;4848837;28;20050;-57
2023/05/08 05:43:27;;;;;;;17.67;4.60;;;;;;;13.22;35.34;100051.81;4851718;28;21078;-58
2023/05/08 05:46:05;;;;;;;24.23;4.75;;;;;;;13.45;35.64;100053.75;4848534;28;20085;-58
2023/05/08 05:48:36;;;;;;;15.18;4.55;;;;;;;13.54;34.85;100044.75;4850138;28;20050;-58
2023/05/08 05:51:06;;;;;;;11.73;3.75;;;;;;;13.50;34.71;100040.50;4849384;28;20582;-57
2023/05/08 05:53:38;;;;;;;29.35;5.90;;;;;;;13.69;34.70;100052.13;4871272;28;20057;-57
2023/05/08 05:56:09;;;;;;;18.63;4.75;;;;;;;13.53;34.01;100045.66;4870604;28;20058;-58
2023/05/08 05:58:44;;;;;;;11.07;4.05;;;;;;;13.27;33.91;100034.22;4879168;28;20138;-58
2023/05/08 06:01:14;;;;;;;16.40;3.97;;;;;;;13.28;33.81;100030.69;4879351;28;20053;-58
2023/05/08 06:03:45;;;;;;;21.98;4.43;;;;;;;13.34;34.00;100027.88;4878894;28;20069;-59
2023/05/08 06:06:16;;;;;;;12.15;7.65;;;;;;;13.36;33.60;100039.19;4877226;28;20057;-58
2023/05/08 06:08:48;;;;;;;17.13;6.03;;;;;;;13.20;34.15;100032.66;4879494;28;20472;-57
2023/05/08 06:11:19;;;;;;;27.38;5.32;;;;;;;13.01;34.39;100032.34;4871062;28;20057;-58
2023/05/08 06:13:49;;;;;;;60.03;7.38;;;;;;;12.74;34.47;100023.53;4878031;28;20805;-57
2023/05/08 06:16:23;;;;;;;32.40;5.05;;;;;;;12.66;35.15;100020.28;4877307;28;20059;-57
2023/05/08 06:18:54;;;;;;;29.27;4.70;;;;;;;12.54;34.59;100012.78;4879209;28;20057;-57
2023/05/08 06:21:25;;;;;;;16.15;3.67;;;;;;;12.43;34.58;100003.47;4878701;28;20652;-57
2023/05/08 06:23:57;;;;;;;20.88;4.45;;;;;;;12.43;35.49;100007.81;4877337;28;20057;-57
2023/05/08 06:26:28;;;;;;;20.75;4.28;;;;;;;12.48;35.04;100017.28;4874827;28;20519;-57
2023/05/08 06:28:58;;;;;;;16.70;4.30;;;;;;;12.48;35.16;100011.16;4884598;28;20050;-57
2023/05/08 06:31:29;;;;;;;11.07;3.70;;;;;;;12.44;34.94;100006.94;4881468;28;20066;-60
2023/05/08 06:33:59;;;;;;;13.07;4.05;;;;;;;12.49;34.78;100008.50;4878761;28;20177;-58
2023/05/08 06:36:30;;;;;;;16.80;4.57;;;;;;;12.53;35.74;100004.06;4879094;28;20049;-58
2023/05/08 06:39:02;;;;;;;12.18;5.20;;;;;;;12.51;35.08;100000.63;4878155;28;20088;-57
2023/05/08 06:41:33;;;;;;;10.82;4.35;;;;;;;12.45;35.03;100000.78;4876617;28;20068;-58
2023/05/08 06:44:04;;;;;;;15.55;4.30;;;;;;;12.46;35.22;100003.38;4877525;28;20083;-57
2023/05/08 06:46:34;;;;;;;11.35;4.50;;;;;;;12.42;35.46;100004.34;4878389;28;20061;-58
2023/05/08 06:49:05;;;;;;;9.93;4.90;;;;;;;12.40;35.66;99990.41;4881763;28;21108;-57
2023/05/08 06:51:40;;;;;;;8.55;4.65;;;;;;;12.47;35.45;99999.84;4864875;28;20064;-57
2023/05/08 06:54:13;;;;;;;20.65;5.20;;;;;;;12.26;35.61;99967.25;4866196;28;20387;-57
2023/05/08 06:56:44;;;;;;;15.20;4.80;;;;;;;12.49;35.20;100003.28;4878867;28;20060;-57
2023/05/08 06:59:17;;;;;;;9.40;4.32;;;;;;;12.37;35.09;100002.75;4877795;28;20478;-57
2023/05/08 07:01:48;;;;;;;15.48;7.75;;;;;;;12.35;35.60;99994.09;4875337;28;20061;-58
2023/05/08 07:04:19;;;;;;;17.60;4.75;;;;;;;11.93;35.66;99928.88;4886149;28;20111;-57
2023/05/08 07:06:49;;;;;;;12.35;4.57;;;;;;;12.03;35.94;99960.03;4866080;28;20656;-58
2023/05/08 07:09:21;;;;;;;12.32;4.47;;;;;;;12.16;36.08;99993.75;4876335;28;20049;-59
2023/05/08 07:11:52;;;;;;;8.00;3.97;;;;;;;12.07;35.90;99990.44;4877658;28;20061;-57
2023/05/08 07:14:22;;;;;;;8.93;4.85;;;;;;;11.99;36.20;99984.56;4878230;28;20049;-58
2023/05/08 07:16:53;;;;;;;9.40;4.20;;;;;;;11.99;36.42;99992.44;4877119;28;20389;-58
2023/05/08 07:19:23;;;;;;;13.57;4.55;;;;;;;12.01;36.79;99989.78;4876280;28;20100;-58
2023/05/08 07:21:54;;;;;;;45.65;6.20;;;;;;;11.95;36.27;99996.00;4878115;28;20199;-58
2023/05/08 07:24:26;;;;;;;19.75;5.40;;;;;;;11.82;36.17;99995.44;4878013;28;20802;-58
2023/05/08 07:26:58;;;;;;;16.55;4.93;;;;;;;11.83;36.20;100004.16;4877163;28;20061;-58
2023/05/08 07:29:28;;;;;;;10.70;4.75;;;;;;;11.88;36.26;99994.44;4871304;28;20057;-59
2023/05/08 07:31:59;;;;;;;17.25;4.90;;;;;;;11.90;36.19;99997.03;4880734;28;20058;-59
2023/05/08 07:34:30;;;;;;;13.15;4.40;;;;;;;12.00;36.26;99991.50;4877302;28;20111;-58
2023/05/08 07:37:00;;;;;;;23.75;5.28;;;;;;;12.31;36.64;99998.56;4876818;28;20384;-58
2023/05/08 07:39:32;;;;;;;15.60;4.25;;;;;;;12.59;36.02;99992.53;4876568;28;20514;-57
2023/05/08 07:42:03;;;;;;;11.90;5.25;;;;;;;12.73;35.62;100003.50;4877015;28;20060;-59
2023/05/08 07:44:34;;;;;;;33.67;8.23;;;;;;;12.82;35.63;99999.72;4876156;28;20068;-58
2023/05/08 07:47:22;;;;;;;20.20;6.53;;;;;;;12.89;35.27;99996.88;4865924;28;20057;-59
2023/05/08 07:49:53;;;;;;;15.70;5.95;;;;;;;12.64;35.39;99956.56;4876943;28;20058;-59
2023/05/08 07:52:24;;;;;;;19.77;5.25;;;;;;;12.86;35.25;99996.97;4882316;28;20056;-58
2023/05/08 07:54:56;;;;;;;13.45;5.28;;;;;;;12.85;35.48;99979.50;4877449;28;20049;-58
2023/05/08 07:57:27;;;;;;;21.25;5.65;;;;;;;12.89;35.17;100001.25;4876149;28;20127;-59
2023/05/08 08:00:02;;;;;;;16.42;5.28;;;;;;;12.54;34.94;99963.84;4874889;28;20062;-59
2023/05/08 08:02:33;;;;;;;12.80;4.53;;;;;;;12.63;35.18;100004.63;4887058;28;20838;-58
2023/05/08 08:05:03;;;;;;;19.65;5.00;;;;;;;12.51;34.96;100001.47;4865618;28;20049;-59
2023/05/08 08:07:34;;;;;;;13.75;5.97;;;;;;;12.35;35.31;100005.41;4874379;28;20053;-59
2023/05/08 08:10:08;;;;;;;21.10;7.88;;;;;;;12.26;35.41;100001.31;4876028;28;20045;-58
2023/05/08 08:12:38;;;;;;;19.60;4.85;;;;;;;12.24;36.49;99992.63;4872343;28;20505;-59
2023/05/08 08:15:10;;;;;;;18.30;4.53;;;;;;;12.17;36.86;100027.75;4877957;28;20054;-59
2023/05/08 08:17:41;;;;;;;10.05;3.85;;;;;;;12.00;36.46;100020.31;4875508;28;20056;-59
2023/05/08 08:20:12;;;;;;;22.35;4.97;;;;;;;11.81;37.58;100003.34;4876978;28;20049;-58
2023/05/08 08:22:42;;;;;;;17.58;4.65;;;;;;;11.89;37.58;100008.44;4875685;28;20049;-59
2023/05/08 08:25:15;;;;;;;19.73;3.67;;;;;;;11.92;37.25;100016.19;4875704;28;20405;-58
2023/05/08 08:27:45;;;;;;;15.90;3.70;;;;;;;11.84;36.59;100008.50;4876773;28;20045;-58
2023/05/08 08:30:16;;;;;;;19.15;3.97;;;;;;;11.87;37.10;100009.31;4877462;28;20056;-58
2023/05/08 08:32:47;;;;;;;7.07;3.50;;;;;;;11.78;36.91;100008.66;4875635;28;20061;-58
2023/05/08 08:35:18;;;;;;;63.67;27.73;;;;;;;11.66;36.72;100013.31;4875418;28;20130;-58
2023/05/08 08:37:49;;;;;;;26.08;8.30;;;;;;;11.41;36.85;99999.97;4871062;28;20053;-58
2023/05/08 08:40:21;;;;;;;17.45;6.55;;;;;;;11.31;37.84;100002.84;4877374;28;20976;-58
2023/05/08 08:42:51;;;;;;;13.77;7.30;;;;;;;11.25;37.19;100008.19;4880757;28;20086;-59
2023/05/08 08:45:22;;;;;;;17.88;5.68;;;;;;;10.98;37.87;99981.78;4875609;28;20092;-58
2023/05/08 08:47:54;;;;;;;14.35;4.03;;;;;;;11.08;37.61;100013.81;4876053;28;20056;-57
2023/05/08 08:50:27;;;;;;;20.13;3.17;;;;;;;10.99;37.38;100022.72;4876392;28;20060;-57
2023/05/08 08:53:06;;;;;;;9.15;2.83;;;;;;;10.88;37.77;100016.84;4872776;28;20060;-57
2023/05/08 08:55:41;;;;;;;11.93;4.20;;;;;;;10.70;37.58;100011.13;4875250;28;20048;-58
2023/05/08 08:58:21;;;;;;;19.25;6.47;;;;;;;10.41;37.94;99987.34;4867751;28;20049;-57
2023/05/08 09:00:53;;;;;;;9.00;3.97;;;;;;;10.52;38.07;100022.81;4870064;28;20080;-57
2023/05/08 09:03:24;;;;;;;15.13;4.20;;;;;;;10.17;38.36;99984.31;4875390;28;20056;-56
2023/05/08 09:05:56;;;;;;;10.57;3.85;;;;;;;10.26;38.71;100010.25;4865171;28;20140;-57
2023/05/08 09:08:31;;;;;;;11.75;3.40;;;;;;;10.26;39.11;100031.16;4877412;28;20060;-57
2023/05/08 09:11:04;;;;;;;21.25;4.22;;;;;;;10.28;39.61;100029.41;4868120;28;20059;-57
2023/05/08 09:13:34;;;;;;;12.52;3.67;;;;;;;10.28;39.26;100031.13;4880799;28;20536;-57
2023/05/08 09:16:08;;;;;;;12.85;4.15;;;;;;;9.97;39.17;99992.50;4877105;28;20148;-57
2023/05/08 09:18:39;;;;;;;11.90;3.38;;;;;;;9.94;39.66;100024.75;4869949;28;20069;-57
2023/05/08 09:21:10;;;;;;;9.32;3.20;;;;;;;9.73;40.14;100014.66;4878349;28;20060;-57
2023/05/08 09:23:58;;;;;;;28.48;3.75;;;;;;;9.77;40.53;100032.00;4876871;28;20148;-56
2023/05/08 09:26:33;;;;;;;14.63;4.05;;;;;;;9.58;40.54;100012.31;4864701;28;20594;-57
2023/05/08 09:29:10;;;;;;;14.38;5.18;;;;;;;9.53;40.93;100035.88;4877857;28;20057;-57
2023/05/08 09:31:43;;;;;;;;;;;;;;;9.38;41.11;100029.13;4867780;28;20088;-59
2023/05/08 09:34:25;;;;;;;11.35;5.00;;;;;;;8.98;41.09;99993.22;4877922;28;19960;-56
2023/05/08 09:36:55;;;;;;;;;;;;;;;8.99;41.85;100031.44;4867288;28;20053;-56
2023/05/08 09:39:26;;;;;;;16.20;4.55;;;;;;;8.83;41.97;100030.78;4878801;28;19971;-56
2023/05/08 09:42:03;;;;;;;23.63;6.20;;;;;;;8.64;42.48;100018.88;4880909;28;20677;-56
2023/05/08 09:44:46;;;;;;;25.05;10.05;;;;;;;8.49;43.07;100001.72;4864250;28;20103;-56
2023/05/08 09:47:17;;;;;;;28.38;12.32;;;;;;;8.48;43.47;100022.53;4988005;28;20139;-56
2023/05/08 09:50:09;;;;;;;29.08;13.48;;;;;;;8.50;43.32;100026.84;5009190;28;20053;-56
2023/05/08 09:52:46;;;;;;;44.75;16.02;;;;;;;8.45;43.61;100027.78;5024568;28;20530;-56
2023/05/08 09:55:19;;;;;;;25.80;10.40;;;;;;;8.27;44.28;100015.81;5024472;28;20127;-56
2023/05/08 09:57:57;;;;;;;31.17;10.93;;;;;;;8.09;44.99;99994.31;4874635;28;20585;-55
2023/05/08 10:00:33;;;;;;;21.45;10.73;;;;;;;8.05;45.46;100013.44;4865434;28;20136;-56
2023/05/08 10:03:06;;;;;;;27.85;10.95;;;;;;;7.57;46.45;99963.59;4865375;28;20052;-55
2023/05/08 10:05:37;;;;;;;16.95;9.15;;;;;;;7.81;47.03;100024.06;4874361;28;20057;-56
2023/05/08 10:08:21;;;;;;;22.25;8.82;;;;;;;7.69;47.42;100031.09;4876444;28;20145;-56
2023/05/08 10:10:52;;;;;;;20.77;8.70;;;;;;;7.60;48.39;100038.13;4862442;28;20058;-57
2023/05/08 10:13:24;;;;;;;19.20;8.73;;;;;;;7.20;49.17;99983.84;4879004;28;20055;-57
2023/05/08 10:16:15;;;;;;;18.35;9.02;;;;;;;7.46;49.76;100033.00;4878802;28;20136;-57
2023/05/08 10:18:51;;;;;;;16.17;7.32;;;;;;;7.31;50.16;100042.66;4869283;28;20068;-57
2023/05/08 10:21:28;;;;;;;17.30;6.40;;;;;;;7.38;50.45;100045.22;4874496;28;20054;-57
2023/05/08 10:24:13;;;;;;;20.48;6.50;;;;;;;7.16;51.06;100034.94;4878262;28;20166;-57
2023/05/08 10:26:58;;;;;;;19.20;5.35;;;;;;;7.06;53.12;100049.75;4867754;28;20053;-57
2023/05/08 10:29:49;;;;;;;26.08;6.78;;;;;;;6.90;53.58;100038.56;4868196;28;20047;-56
2023/05/08 10:32:23;;;;;;;23.35;7.75;;;;;;;6.85;53.87;100053.31;4867813;28;20061;-56
2023/05/08 10:35:00;;;;;;;18.17;6.28;;;;;;;6.72;53.92;100054.22;4867913;28;20061;-56
2023/05/08 10:37:38;;;;;;;21.38;6.60;;;;;;;6.46;54.54;100026.66;4878499;28;20883;-57
2023/05/08 10:40:11;;;;;;;21.92;6.25;;;;;;;6.28;55.39;100021.50;4879197;28;20048;-56
2023/05/08 10:42:43;;;;;;;15.98;5.82;;;;;;;6.45;55.78;100061.22;4868888;28;20053;-56
2023/05/08 10:45:16;;;;;;;18.02;5.60;;;;;;;6.41;55.78;100063.84;4888201;28;20053;-56
2023/05/08 10:47:58;;;;;;;22.73;7.03;;;;;;;6.31;56.57;100057.81;4867956;28;20065;-56
2023/05/08 10:50:43;;;;;;;23.08;9.20;;;;;;;6.21;56.81;100061.28;4867498;28;20711;-56
2023/05/08 10:53:19;;;;;;;25.70;10.35;;;;;;;6.21;57.23;100069.94;4858238;28;20144;-57
2023/05/08 10:55:52;;;;;;;35.80;12.77;;;;;;;5.99;57.57;100032.81;4878910;28;20187;-56
2023/05/08 10:58:36;;;;;;;44.80;16.50;;;;;;;6.18;57.64;100063.91;4868487;28;20052;-56
2023/05/08 11:01:19;;;;;;;41.38;15.95;;;;;;;5.99;57.89;100047.47;4867484;28;20143;-56
2023/05/08 11:03:53;;;;;;;38.58;14.15;;;;;;;6.07;58.47;100073.44;4868243;28;20131;-56
2023/05/08 11:06:47;;;;;;;50.08;15.68;;;;;;;5.95;59.03;100080.34;4868237;28;20064;-56
2023/05/08 11:09:22;;;;;;;45.30;14.02;;;;;;;5.85;59.57;100073.41;4866169;28;20103;-56
2023/05/08 11:12:18;;;;;;;27.13;11.07;;;;;;;5.55;59.52;100044.03;4867394;28;20056;-56
2023/05/08 11:15:04;;;;;;;31.10;10.50;;;;;;;5.48;60.85;100047.47;4868317;28;20473;-56
2023/05/08 11:17:54;;;;;;;29.67;10.18;;;;;;;5.60;61.05;100073.41;4866937;28;20060;-56
2023/05/08 11:20:38;;;;;;;;;;;;;;;5.59;60.98;100087.22;4867173;28;20099;-56
2023/05/08 11:23:25;;;;;;;26.40;7.85;;;;;;;5.50;61.11;100074.25;4868262;28;20006;-56
2023/05/08 11:26:01;;;;;;;16.20;7.47;;;;;;;5.50;61.51;100082.03;4866649;28;20179;-56
2023/05/08 11:28:37;;;;;;;22.02;6.85;;;;;;;5.34;61.50;100070.78;4867089;28;20053;-56
2023/05/08 11:31:13;;;;;;;19.50;6.55;;;;;;;5.34;61.83;100088.03;4878433;28;20048;-56
2023/05/08 11:33:47;;;;;;;23.77;7.18;;;;;;;5.07;62.39;100055.19;4867928;28;20439;-56
2023/05/08 11:36:24;;;;;;;20.17;7.95;;;;;;;4.95;62.30;100056.88;4876956;28;20059;-56
2023/05/08 11:39:11;;;;;;;17.30;6.35;;;;;;;5.07;62.32;100081.94;4869371;28;20118;-50
2023/05/08 11:41:42;;;;;;;12.93;6.88;;;;;;;5.01;62.87;100071.53;4877445;28;20065;-55
2023/05/08 11:44:24;;;;;;;19.48;6.80;;;;;;;4.79;63.52;100049.03;4891505;28;20467;-50
2023/05/08 11:46:56;;;;;;;16.00;7.43;;;;;;;4.95;64.11;100081.91;4880827;28;20114;-53
2023/05/08 11:49:29;;;;;;;14.73;7.30;;;;;;;4.92;64.32;100087.06;4891075;28;20075;-52
2023/05/08 11:52:05;;;;;;;20.17;7.38;;;;;;;4.60;64.49;100036.03;4903244;28;20056;-52
2023/05/08 11:54:35;;;;;;;17.48;8.75;;;;;;;4.81;64.28;100084.41;4881478;28;20155;-51